createdAt,value
2022-11-09T07:31:11.142Z,4.22
2022-11-09T07:36:20.715Z,4.85
2022-11-09T07:41:25.170Z,3.92
2022-11-09T07:46:30.556Z,4.20
2022-11-09T07:51:35.839Z,4.32
2022-11-09T07:56:39.692Z,4.70
2022-11-09T08:01:44.827Z,4.63
2022-11-09T08:06:48.559Z,4.80
2022-11-09T08:11:52.134Z,4.38
2022-11-09T08:16:57.440Z,4.78
2022-11-09T08:22:01.317Z,4.60
2022-11-09T08:27:04.994Z,4.32
2022-11-09T08:32:10.022Z,4.35
2022-11-09T08:37:13.851Z,4.25
2022-11-09T08:42:17.576Z,4.35
2022-11-09T08:47:22.652Z,3.92
2022-11-09T08:52:26.240Z,4.40
2022-11-09T08:57:30.380Z,4.03
2022-11-09T09:02:35.500Z,4.00
2022-11-09T09:07:39.228Z,4.22
2022-11-09T09:12:42.834Z,4.20
2022-11-09T09:17:47.912Z,4.68
2022-11-09T09:22:59.148Z,4.18
2022-11-09T09:28:02.801Z,5.20
2022-11-09T09:33:08.776Z,5.07
2022-11-09T09:38:12.498Z,4.50
2022-11-09T09:43:24.217Z,4.45
2022-11-09T09:48:37.946Z,5.10
2022-11-09T09:53:46.374Z,4.28
2022-11-09T09:58:56.956Z,4.55
2022-11-09T10:04:02.131Z,4.72
2022-11-09T10:09:19.595Z,5.03
2022-11-09T10:14:52.768Z,5.38
2022-11-09T10:27:31.055Z,4.22
2022-11-09T10:32:52.833Z,5.88
2022-11-09T10:38:02.617Z,4.35
2022-11-09T10:43:13.404Z,4.35
2022-11-09T10:48:53.907Z,4.70
2022-11-09T10:54:20.158Z,4.75
2022-11-09T10:59:50.851Z,4.88
2022-11-09T11:05:42.660Z,3.92
2022-11-09T11:11:38.331Z,4.32
2022-11-09T11:17:03.601Z,4.00
2022-11-09T11:22:27.511Z,3.60
2022-11-09T11:27:55.386Z,3.30
2022-11-09T11:33:22.778Z,3.42
2022-11-09T11:38:57.496Z,2.97
2022-11-09T11:44:40.631Z,3.00
2022-11-09T11:50:19.140Z,2.20
2022-11-09T11:55:53.395Z,2.72
2022-11-09T12:01:39.840Z,2.58
2022-11-09T12:07:17.688Z,2.13
2022-11-09T12:12:51.259Z,2.40
2022-11-09T12:18:28.831Z,2.70
2022-11-09T12:24:14.098Z,2.20
2022-11-09T12:29:40.924Z,2.33
2022-11-09T12:35:27.548Z,2.15
2022-11-09T12:40:56.097Z,2.00
2022-11-09T12:46:21.347Z,1.95
2022-11-09T12:51:43.841Z,2.30
2022-11-09T12:57:38.539Z,1.88
2022-11-09T13:03:32.914Z,2.13
2022-11-09T13:09:02.486Z,2.30
2022-11-09T13:14:39.381Z,2.38
2022-11-09T13:20:55.433Z,2.63
2022-11-09T13:26:25.064Z,2.65
2022-11-09T13:32:27.298Z,2.35
2022-11-09T13:37:59.746Z,2.30
2022-11-09T13:43:26.149Z,2.80
2022-11-09T13:48:52.938Z,2.50
2022-11-09T13:54:50.180Z,2.10
2022-11-09T14:00:19.691Z,2.63
2022-11-09T14:05:42.330Z,2.45
2022-11-09T14:11:25.708Z,2.40
2022-11-09T14:22:17.220Z,2.60
2022-11-09T14:27:47.796Z,2.70
2022-11-09T14:33:22.682Z,2.55
2022-11-09T14:38:48.830Z,2.42
2022-11-09T14:44:18.468Z,2.60
2022-11-09T14:49:41.431Z,2.60
2022-11-09T14:55:04.743Z,2.35
2022-11-09T15:00:33.201Z,2.50
2022-11-09T15:06:05.946Z,2.83
2022-11-09T15:11:33.080Z,2.70
2022-11-09T15:17:13.600Z,2.92
2022-11-09T15:22:49.520Z,2.67
2022-11-09T15:28:22.318Z,3.20
2022-11-09T15:33:52.278Z,2.47
2022-11-09T15:39:18.094Z,3.60
2022-11-09T15:44:40.371Z,2.80
2022-11-09T15:50:16.120Z,3.50
2022-11-09T15:55:41.942Z,3.60
2022-11-09T16:01:06.634Z,3.42
2022-11-09T16:06:31.083Z,3.30
2022-11-09T16:12:05.114Z,3.75
2022-11-09T16:17:28.593Z,4.82
2022-11-09T16:34:37.546Z,4.57
2022-11-09T16:40:00.621Z,4.47
2022-11-09T16:45:25.903Z,4.53
2022-11-09T16:50:53.611Z,5.10
2022-11-09T16:56:17.158Z,4.97
2022-11-09T17:01:39.562Z,5.25
2022-11-09T17:07:03.090Z,4.93
2022-11-09T17:12:25.329Z,4.93
2022-11-09T17:17:50.122Z,4.85
2022-11-09T17:23:18.842Z,5.03
2022-11-09T17:28:43.316Z,5.55
2022-11-09T17:34:05.742Z,6.15
2022-11-09T17:39:38.634Z,6.10
2022-11-09T17:45:01.101Z,5.47
2022-11-09T17:50:29.632Z,5.07
2022-11-09T17:56:42.334Z,5.85
2022-11-09T18:02:31.574Z,7.75
2022-11-09T18:08:21.231Z,7.65
2022-11-09T18:13:49.432Z,9.68
2022-11-09T18:25:38.282Z,15.50
2022-11-09T18:31:02.372Z,5.65
2022-11-09T18:36:47.734Z,3.83
2022-11-09T18:48:18.722Z,4.43
2022-11-09T18:53:46.710Z,2.67
2022-11-09T18:59:11.545Z,2.50
2022-11-09T19:04:49.331Z,2.42
2022-11-09T19:10:13.101Z,2.08
2022-11-09T19:15:40.686Z,2.70
2022-11-09T19:21:03.647Z,4.35
2022-11-09T19:26:30.926Z,5.53
2022-11-09T19:31:54.930Z,3.60
2022-11-09T19:37:17.437Z,4.77
2022-11-09T19:42:41.888Z,5.13
2022-11-09T19:48:09.516Z,4.75
2022-11-09T19:53:39.510Z,4.43
2022-11-09T19:59:07.048Z,3.40
2022-11-09T20:04:29.759Z,4.72
2022-11-09T20:09:55.192Z,4.22
2022-11-09T20:15:22.407Z,4.70
2022-11-09T20:20:45.498Z,4.82
2022-11-09T20:26:13.560Z,5.43
2022-11-09T20:31:40.352Z,5.35
2022-11-09T20:37:05.996Z,4.55
2022-11-09T20:42:28.735Z,2.92
2022-11-09T20:48:10.515Z,3.60
2022-11-09T20:53:37.382Z,3.75
2022-11-09T21:04:24.810Z,3.55
2022-11-09T21:09:50.628Z,4.00
2022-11-09T21:15:15.577Z,4.03
2022-11-09T21:20:41.730Z,3.72
2022-11-09T21:26:21.478Z,3.65
2022-11-09T21:31:44.597Z,4.93
2022-11-09T21:37:08.453Z,3.85
2022-11-09T21:42:30.913Z,4.35
2022-11-09T21:47:55.704Z,3.33
2022-11-09T21:53:19.690Z,3.92
2022-11-09T21:58:41.877Z,4.47
2022-11-09T22:04:04.074Z,3.70
2022-11-09T22:09:35.722Z,3.30
2022-11-09T22:15:15.530Z,3.30
2022-11-09T22:20:55.772Z,3.20
2022-11-09T22:26:32.511Z,3.03
2022-11-09T22:31:55.009Z,3.38
2022-11-09T22:37:17.639Z,4.57
